EJU27FV LIMC-LFMN
Flight info
| Callsign | EJU27FV |
|---|---|
| Flight time | N/A |
| Altitude | 17000 |
| Route | LAGEN Q712 ENOBA Z185 BORDI |
| Aircraft | A21N/M-SDE2E3FGHIRWXY/LB1 |
Departure
| Time | 2026-05-05 22:50 |
|---|---|
| Airport | Milan Malpensa International Airport (LIMC) |
Arrival
| Time | N/A |
|---|---|
| Airport | Nice-Côte d'Azur Airport (LFMN) |
| Time | Latitude | Longitude | Altitude | Speed | Heading |
|---|---|---|---|---|---|
| 2026-05-05 22:11 | 45.63009 | 8.71474 | 746 ft | 0 kts | 349° |
| 2026-05-05 22:16 | 45.63008 | 8.71474 | 746 ft | 0 kts | 349° |
| 2026-05-05 22:29 | 45.62985 | 8.71479 | 745 ft | 4 kts | 355° |
| 2026-05-05 22:29 | 45.62959 | 8.71479 | 744 ft | 4 kts | 9° |
| 2026-05-05 22:29 | 45.62934 | 8.71468 | 745 ft | 4 kts | 39° |
| 2026-05-05 22:30 | 45.62924 | 8.71447 | 744 ft | 1 kts | 78° |
| 2026-05-05 22:30 | 45.62923 | 8.71442 | 744 ft | 1 kts | 78° |
| 2026-05-05 22:35 | 45.62924 | 8.71446 | 744 ft | 2 kts | 78° |
| 2026-05-05 22:35 | 45.62929 | 8.71481 | 743 ft | 5 kts | 78° |
| 2026-05-05 22:36 | 45.62939 | 8.71550 | 746 ft | 9 kts | 79° |
| 2026-05-05 22:36 | 45.62952 | 8.71646 | 744 ft | 11 kts | 79° |
| 2026-05-05 22:36 | 45.62967 | 8.71768 | 746 ft | 14 kts | 79° |
| 2026-05-05 22:36 | 45.62984 | 8.71899 | 746 ft | 11 kts | 80° |
| 2026-05-05 22:37 | 45.62936 | 8.71951 | 746 ft | 11 kts | 168° |
| 2026-05-05 22:37 | 45.62853 | 8.71975 | 746 ft | 13 kts | 168° |
| 2026-05-05 22:37 | 45.62753 | 8.72004 | 746 ft | 16 kts | 168° |
| 2026-05-05 22:37 | 45.62639 | 8.72038 | 745 ft | 18 kts | 168° |
| 2026-05-05 22:38 | 45.62509 | 8.72069 | 746 ft | 20 kts | 170° |
| 2026-05-05 22:38 | 45.62367 | 8.72105 | 746 ft | 22 kts | 169° |
| 2026-05-05 22:38 | 45.62213 | 8.72146 | 747 ft | 24 kts | 169° |
| 2026-05-05 22:38 | 45.62046 | 8.72196 | 744 ft | 25 kts | 162° |
| 2026-05-05 22:39 | 45.61868 | 8.72249 | 746 ft | 25 kts | 173° |
| 2026-05-05 22:39 | 45.61738 | 8.72282 | 744 ft | 19 kts | 169° |
| 2026-05-05 22:39 | 45.61601 | 8.72320 | 746 ft | 21 kts | 169° |
| 2026-05-05 22:39 | 45.61455 | 8.72361 | 747 ft | 18 kts | 169° |
| 2026-05-05 22:40 | 45.61373 | 8.72440 | 747 ft | 15 kts | 127° |
| 2026-05-05 22:40 | 45.61287 | 8.72522 | 744 ft | 10 kts | 184° |
| 2026-05-05 22:40 | 45.61223 | 8.72539 | 746 ft | 9 kts | 170° |
| 2026-05-05 22:42 | 45.61144 | 8.72556 | 744 ft | 15 kts | 185° |
| 2026-05-05 22:42 | 45.61084 | 8.72590 | 744 ft | 4 kts | 124° |
| 2026-05-05 22:42 | 45.61076 | 8.72620 | 746 ft | 4 kts | 105° |
| 2026-05-05 22:43 | 45.61081 | 8.72672 | 747 ft | 7 kts | 76° |
| 2026-05-05 22:43 | 45.61090 | 8.72753 | 748 ft | 10 kts | 82° |
| 2026-05-05 22:43 | 45.61106 | 8.72863 | 748 ft | 13 kts | 78° |
| 2026-05-05 22:43 | 45.61126 | 8.72996 | 748 ft | 15 kts | 78° |
| 2026-05-05 22:44 | 45.61143 | 8.73151 | 747 ft | 17 kts | 81° |
| 2026-05-05 22:44 | 45.61150 | 8.73251 | 746 ft | 6 kts | 104° |
| 2026-05-05 22:44 | 45.61154 | 8.73316 | 745 ft | 8 kts | 41° |
| 2026-05-05 22:44 | 45.61221 | 8.73317 | 747 ft | 11 kts | 348° |
| 2026-05-05 22:45 | 45.61306 | 8.73291 | 746 ft | 14 kts | 348° |
| 2026-05-05 22:45 | 45.61408 | 8.73261 | 746 ft | 16 kts | 348° |
| 2026-05-05 22:45 | 45.61525 | 8.73229 | 743 ft | 18 kts | 349° |
| 2026-05-05 22:45 | 45.61598 | 8.73229 | 745 ft | 7 kts | 41° |
| 2026-05-05 22:46 | 45.61620 | 8.73300 | 745 ft | 9 kts | 73° |
| 2026-05-05 22:46 | 45.61633 | 8.73393 | 743 ft | 8 kts | 86° |
| 2026-05-05 22:46 | 45.61628 | 8.73438 | 747 ft | 1 kts | 123° |
| 2026-05-05 22:46 | 45.61620 | 8.73456 | 747 ft | 4 kts | 123° |
| 2026-05-05 22:47 | 45.61599 | 8.73505 | 746 ft | 8 kts | 115° |
| 2026-05-05 22:47 | 45.61581 | 8.73568 | 745 ft | 3 kts | 99° |
| 2026-05-05 22:47 | 45.61580 | 8.73607 | 746 ft | 5 kts | 81° |
| 2026-05-05 22:47 | 45.61592 | 8.73664 | 744 ft | 7 kts | 72° |
| 2026-05-05 22:48 | 45.61606 | 8.73720 | 744 ft | 5 kts | 53° |
| 2026-05-05 22:48 | 45.61645 | 8.73730 | 744 ft | 6 kts | 337° |
| 2026-05-05 22:48 | 45.61656 | 8.73726 | 743 ft | 0 kts | 348° |
| 2026-05-05 22:49 | 45.61661 | 8.73724 | 744 ft | 6 kts | 348° |
| 2026-05-05 22:49 | 45.61915 | 8.73653 | 744 ft | 73 kts | 350° |
| 2026-05-05 22:49 | 45.62624 | 8.73459 | 746 ft | 134 kts | 349° |
| 2026-05-05 22:50 | 45.63665 | 8.73175 | 902 ft | 159 kts | 349° |
| 2026-05-05 22:50 | 45.64752 | 8.72900 | 1468 ft | 159 kts | 352° |
| 2026-05-05 22:50 | 45.65875 | 8.73090 | 1895 ft | 173 kts | 15° |
| 2026-05-05 22:50 | 45.67124 | 8.73035 | 2347 ft | 188 kts | 353° |
| 2026-05-05 22:51 | 45.68460 | 8.72831 | 2863 ft | 199 kts | 356° |